Huntley, Montana
Current Conditions -  °F | °C
As of 11:53 AM on Tuesday 27 Jan 2015 (Local Time) from KBIL Reporting Station
Broken Clouds Broken Clouds  
Wind Chill: 60°   Ceiling: 18000
Heat Index: 60°   Visibility: 10mi
Dew Point: 29°   Wind: 14mph
Humidity: 31%   Direction: 240°WSW
Pressure: 29.93"   Gusts: NA
Location:  45.9°N, 108.3°W
Report Text: KBIL 271853Z 24012KT 10SM SCT110 BKN180 16/M02 A2993 RMK AO2 SLP123 ACSL DSNT SE T01561017
Loading
Personal Weather Stations






























Interactive Weather Map New forecast layout! Learn more

10-Day Weather Forecast

Advertisements
Track Severe Weather on mobile